Time;durP1;ratioP1;P1;durP2;ratioP2;P2;SDS_P1;SDS_P2;PMS_P1;PMS_P2;Temp;Humidity;BMP_temperature;BMP_pressure;BME280_temperature;BME280_humidity;BME280_pressure;Samples;Min_cycle;Max_cycle;Signal;HPM_P1;HPM_P2
2023/10/08 00:02:11;;;;;;;4.68;2.00;;;;;;;17.03;59.40;99827.09;6194661;28;20050;-72
2023/10/08 00:05:16;;;;;;;3.72;2.08;;;;;;;17.01;59.13;99819.31;6192806;28;20403;-72
2023/10/08 00:08:17;;;;;;;4.95;2.40;;;;;;;16.96;59.19;99820.72;6192941;28;20449;-72
2023/10/08 00:11:18;;;;;;;7.63;2.70;;;;;;;16.94;59.51;99822.66;6193930;28;20055;-72
2023/10/08 00:14:21;;;;;;;3.53;1.88;;;;;;;16.93;59.05;99811.28;6192924;28;20513;-72
2023/10/08 00:17:22;;;;;;;5.07;2.08;;;;;;;16.95;59.30;99809.34;6192719;28;20093;-72
2023/10/08 00:20:34;;;;;;;3.85;1.98;;;;;;;16.82;58.53;99792.97;6194044;28;20417;-72
2023/10/08 00:23:41;;;;;;;3.92;2.13;;;;;;;16.87;58.93;99786.31;6193797;28;20055;-72
2023/10/08 00:26:42;;;;;;;6.53;1.80;;;;;;;16.72;59.58;99783.25;6192899;28;20184;-72
2023/10/08 00:29:43;;;;;;;6.93;2.20;;;;;;;16.70;59.18;99789.66;6192580;28;20047;-72
2023/10/08 00:32:44;;;;;;;5.60;2.47;;;;;;;16.61;60.21;99787.84;6192821;28;20062;-72
2023/10/08 00:35:47;;;;;;;7.38;2.30;;;;;;;16.61;59.73;99793.09;6193772;28;20085;-72
2023/10/08 00:38:58;;;;;;;7.35;1.92;;;;;;;16.72;59.63;99777.16;6193901;28;20054;-72
2023/10/08 00:41:59;;;;;;;4.05;1.80;;;;;;;16.77;59.63;99790.75;6192268;28;20535;-72
2023/10/08 00:45:04;;;;;;;5.60;2.22;;;;;;;16.78;58.97;99784.50;6193955;28;20133;-72
2023/10/08 00:48:06;;;;;;;4.75;2.17;;;;;;;16.77;59.03;99774.94;6192331;28;20499;-72
2023/10/08 00:51:25;;;;;;;3.60;1.92;;;;;;;16.76;59.14;99780.31;6192131;28;20051;-72
2023/10/08 00:54:28;;;;;;;5.60;2.13;;;;;;;16.65;58.22;99776.03;6192085;28;20054;-72
2023/10/08 00:57:30;;;;;;;3.53;1.77;;;;;;;16.68;58.92;99773.97;6192278;28;20058;-72
2023/10/08 01:00:33;;;;;;;9.20;2.30;;;;;;;16.60;58.33;99770.38;6193460;28;20410;-72
2023/10/08 01:03:35;;;;;;;4.07;2.20;;;;;;;16.62;58.50;99773.69;6192028;28;20138;-72
2023/10/08 01:06:39;;;;;;;;;;;;;;;16.45;57.63;99762.91;6193170;28;20054;-71
2023/10/08 01:09:47;;;;;;;6.72;2.33;;;;;;;16.64;57.32;99761.22;6197256;28;19929;-72
2023/10/08 01:13:04;;;;;;;3.33;2.08;;;;;;;16.71;56.38;99743.88;6197292;28;20121;-72
2023/10/08 01:16:08;;;;;;;4.18;2.20;;;;;;;16.81;56.59;99739.47;6197139;28;20061;-72
2023/10/08 01:19:13;;;;;;;3.38;1.50;;;;;;;16.91;56.09;99747.34;6197116;28;20145;-72
2023/10/08 01:22:21;;;;;;;7.22;2.20;;;;;;;16.94;56.21;99743.59;6298257;28;20508;-73
2023/10/08 01:25:24;;;;;;;3.33;2.00;;;;;;;16.98;56.36;99729.97;6197178;28;20133;-72
2023/10/08 01:28:26;;;;;;;5.70;1.90;;;;;;;16.87;57.31;99723.06;6196931;28;20437;-73
2023/10/08 01:31:27;;;;;;;5.40;1.95;;;;;;;16.79;56.32;99724.75;6197010;28;20054;-72
2023/10/08 01:34:30;;;;;;;8.70;1.85;;;;;;;16.88;56.64;99735.31;6195954;28;20449;-72
2023/10/08 01:37:33;;;;;;;3.40;1.75;;;;;;;16.87;56.44;99722.25;6195777;28;20498;-72
2023/10/08 01:40:38;;;;;;;4.50;1.95;;;;;;;16.87;57.29;99719.63;6195533;28;20054;-72
2023/10/08 01:43:40;;;;;;;5.38;2.15;;;;;;;16.91;58.05;99718.38;6196588;28;20046;-72
2023/10/08 01:46:41;;;;;;;;;;;;;;;16.88;57.40;99708.09;6195905;28;20119;-72
2023/10/08 01:49:46;;;;;;;3.55;1.73;;;;;;;16.88;57.55;99694.91;6196812;28;19925;-72
2023/10/08 01:52:53;;;;;;;3.03;1.83;;;;;;;16.85;59.39;99690.78;6196289;28;20115;-72
2023/10/08 01:55:55;;;;;;;3.65;1.98;;;;;;;16.86;59.88;99694.22;6195307;28;20441;-71
2023/10/08 01:58:56;;;;;;;4.78;1.88;;;;;;;16.78;58.83;99691.44;6196360;28;20200;-72
2023/10/08 02:01:57;;;;;;;6.63;1.80;;;;;;;16.79;57.49;99682.59;6195133;28;20441;-72
2023/10/08 02:05:00;;;;;;;4.80;2.10;;;;;;;16.88;57.62;99652.75;6196397;28;20520;-72
2023/10/08 02:08:03;;;;;;;3.30;1.65;;;;;;;17.01;57.09;99650.66;6196325;28;20133;-72
2023/10/08 02:11:08;;;;;;;;;;;;;;;17.03;57.59;99658.41;6196561;28;20054;-72
2023/10/08 02:14:09;;;;;;;4.97;1.58;;;;;;;17.08;56.79;99656.97;6196081;28;20263;-72
2023/10/08 02:17:13;;;;;;;2.88;1.67;;;;;;;17.01;56.41;99661.19;6196295;28;20077;-71
2023/10/08 02:20:16;;;;;;;5.72;1.60;;;;;;;17.08;56.50;99664.88;6195869;28;20111;-72
2023/10/08 02:23:18;;;;;;;8.18;1.95;;;;;;;17.12;55.76;99645.19;6196011;28;20057;-71
2023/10/08 02:26:19;;;;;;;;;;;;;;;17.20;55.09;99647.09;6196381;28;20050;-71
2023/10/08 02:29:30;;;;;;;4.72;1.75;;;;;;;17.32;54.95;99645.91;6194935;28;19976;-72
2023/10/08 02:32:31;;;;;;;6.63;1.95;;;;;;;17.28;55.13;99644.56;6296346;28;20058;-72
2023/10/08 02:35:33;;;;;;;8.23;2.10;;;;;;;17.37;55.17;99642.00;6194787;28;20065;-71
2023/10/08 02:38:37;;;;;;;4.97;1.73;;;;;;;17.45;54.31;99628.91;6195552;28;20527;-72
2023/10/08 02:41:41;;;;;;;8.55;2.40;;;;;;;17.51;53.94;99628.31;6195885;28;20062;-72
2023/10/08 02:44:42;;;;;;;3.25;1.50;;;;;;;17.67;53.70;99627.66;6194381;28;20058;-71
2023/10/08 02:47:46;;;;;;;6.47;1.40;;;;;;;17.65;53.23;99630.44;6195493;28;20493;-72
2023/10/08 02:50:53;;;;;;;4.18;1.70;;;;;;;17.75;52.97;99614.56;6194418;28;20050;-72
2023/10/08 02:53:56;;;;;;;3.20;1.63;;;;;;;17.69;53.02;99615.97;6195203;28;20365;-72
2023/10/08 02:57:00;;;;;;;4.75;2.03;;;;;;;17.80;51.91;99620.19;6195668;28;20073;-72
2023/10/08 03:00:04;;;;;;;4.10;1.83;;;;;;;17.81;52.47;99619.25;6195148;28;20054;-72
2023/10/08 03:03:15;;;;;;;4.68;1.73;;;;;;;17.82;51.87;99633.25;6194258;28;20083;-72
2023/10/08 03:06:17;;;;;;;10.52;2.45;;;;;;;17.82;52.09;99638.53;6195109;28;20069;-72
2023/10/08 03:09:23;;;;;;;6.03;2.03;;;;;;;17.78;51.58;99638.00;6195093;28;20058;-72
2023/10/08 03:12:25;;;;;;;7.07;1.95;;;;;;;17.85;52.14;99652.28;6194062;28;20068;-72
2023/10/08 03:15:29;;;;;;;5.55;1.55;;;;;;;17.84;51.56;99640.06;6195059;28;20058;-72
2023/10/08 03:18:36;;;;;;;10.82;1.90;;;;;;;17.78;51.98;99645.91;6295665;28;20054;-72
2023/10/08 03:24:38;;;;;;;3.40;1.67;;;;;;;17.63;52.46;99653.50;6194739;28;20043;-72
2023/10/08 03:27:41;;;;;;;5.00;1.88;;;;;;;17.53;52.33;99650.09;6193644;28;20050;-72
2023/10/08 03:30:50;;;;;;;3.97;1.70;;;;;;;17.53;52.88;99650.09;6194172;28;20540;-72
2023/10/08 03:33:54;;;;;;;6.28;1.80;;;;;;;17.56;52.50;99641.88;6193659;28;20050;-72
2023/10/08 03:37:07;;;;;;;2.78;1.35;;;;;;;17.50;52.41;99642.47;6194714;28;20069;-72
2023/10/08 03:40:42;;;;;;;;;;;;;;;17.45;53.08;99648.19;6194092;28;20069;-71
2023/10/08 03:43:52;;;;;;;3.85;2.03;;;;;;;17.36;53.42;99642.97;6193215;28;19922;-72
2023/10/08 03:46:57;;;;;;;3.65;1.63;;;;;;;17.39;53.28;99646.16;6193318;28;20046;-72
2023/10/08 03:50:05;;;;;;;5.50;1.77;;;;;;;17.43;52.91;99649.34;6194344;28;20046;-71
2023/10/08 03:53:13;;;;;;;6.70;1.98;;;;;;;17.39;54.02;99645.34;6194213;28;20054;-72
2023/10/08 03:56:19;;;;;;;4.07;1.83;;;;;;;17.27;53.42;99645.50;6193244;28;20142;-72
2023/10/08 04:02:40;;;;;;;4.10;1.45;;;;;;;17.35;53.82;99628.16;6194134;28;20069;-72
2023/10/08 04:06:06;;;;;;;4.20;1.88;;;;;;;17.33;53.48;99639.66;6194207;28;20482;-72
2023/10/08 04:12:11;;;;;;;6.82;2.05;;;;;;;17.38;53.87;99622.56;6193999;28;20050;-72
2023/10/08 04:15:16;;;;;;;5.85;1.90;;;;;;;17.29;53.88;99616.38;6193942;28;20465;-72
2023/10/08 04:18:20;;;;;;;3.15;1.73;;;;;;;17.31;53.92;99619.69;6192978;28;20057;-72
2023/10/08 04:21:27;;;;;;;9.60;2.20;;;;;;;17.26;54.04;99606.13;6193810;28;20051;-72
2023/10/08 04:24:28;;;;;;;10.63;1.90;;;;;;;17.17;54.45;99607.00;6193697;28;20406;-72
2023/10/08 04:27:30;;;;;;;5.55;2.33;;;;;;;17.12;54.34;99608.28;6192674;28;20050;-72
2023/10/08 04:30:35;;;;;;;2.90;1.80;;;;;;;16.94;54.79;99617.09;6193936;28;20054;-72
2023/10/08 04:33:36;;;;;;;7.10;1.98;;;;;;;16.93;54.69;99603.09;6192494;28;20057;-72
2023/10/08 04:36:40;;;;;;;5.63;2.00;;;;;;;16.98;55.28;99598.22;6193933;28;20077;-72
2023/10/08 04:39:46;;;;;;;5.88;1.67;;;;;;;16.98;54.98;99598.22;6193610;28;20490;-72
2023/10/08 04:42:48;;;;;;;8.20;2.25;;;;;;;16.85;55.56;99595.91;6195918;28;20072;-72
2023/10/08 04:45:49;;;;;;;5.13;1.77;;;;;;;16.86;55.39;99602.88;6197737;28;20050;-72
2023/10/08 04:48:51;;;;;;;9.13;1.77;;;;;;;16.93;55.76;99608.38;6196813;28;20291;-72
2023/10/08 04:52:05;;;;;;;4.28;1.45;;;;;;;16.83;55.78;99610.22;6196388;28;20478;-72
2023/10/08 04:55:15;;;;;;;6.95;2.30;;;;;;;16.79;56.00;99622.81;6196621;28;20055;-72
2023/10/08 04:58:21;;;;;;;4.82;1.83;;;;;;;16.80;56.21;99613.09;6197518;28;20443;-72
2023/10/08 05:01:38;;;;;;;7.38;1.88;;;;;;;16.84;56.46;99603.97;6197793;28;20060;-72
2023/10/08 05:08:28;;;;;;;4.82;2.00;;;;;;;16.83;57.03;99610.22;6219973;28;20146;-72
2023/10/08 05:15:21;;;;;;;11.80;2.08;;;;;;;16.89;57.03;99599.91;6197307;28;20482;-72
2023/10/08 05:18:51;;;;;;;4.85;1.83;;;;;;;16.98;57.17;99605.28;6197044;28;20050;-72
2023/10/08 05:21:51;;;;;;;3.45;1.88;;;;;;;17.07;57.42;99618.44;6196939;28;20054;-72
2023/10/08 05:25:10;;;;;;;8.45;2.03;;;;;;;17.04;58.23;99623.97;6197053;28;20065;-72
2023/10/08 05:28:24;;;;;;;4.68;1.67;;;;;;;17.06;58.29;99621.22;6197411;28;20517;-72
2023/10/08 05:31:47;;;;;;;3.22;1.95;;;;;;;17.09;58.56;99632.31;6195726;28;20490;-72
2023/10/08 05:35:30;;;;;;;3.47;1.58;;;;;;;17.06;58.29;99622.03;6195886;28;20042;-72
2023/10/08 05:38:23;;;;;;;6.97;2.03;;;;;;;17.13;57.63;99627.53;6196705;28;20050;-72
2023/10/08 05:41:51;;;;;;;6.65;2.15;;;;;;;17.25;57.63;99636.91;6195569;28;20501;-72
2023/10/08 05:48:14;;;;;;;9.40;1.95;;;;;;;17.34;58.54;99627.31;6196768;28;20054;-72
2023/10/08 05:51:33;;;;;;;8.20;2.00;;;;;;;17.31;57.21;99641.59;6196778;28;20093;-72
2023/10/08 05:57:38;;;;;;;5.93;1.73;;;;;;;17.47;57.46;99624.31;6196818;28;20065;-73
2023/10/08 06:07:33;;;;;;;10.13;2.20;;;;;;;17.72;57.14;99615.66;6233043;28;20062;-73
2023/10/08 06:13:45;;;;;;;4.00;1.95;;;;;;;17.86;56.44;99608.25;6196081;28;20047;-71
2023/10/08 06:17:01;;;;;;;14.65;2.20;;;;;;;17.95;56.03;99609.16;6195112;28;20077;-72
2023/10/08 06:20:09;;;;;;;5.38;2.15;;;;;;;18.02;55.89;99618.94;6194732;28;20517;-72
2023/10/08 06:23:12;;;;;;;5.93;2.17;;;;;;;18.26;57.01;99634.16;6194899;28;20050;-72
2023/10/08 06:29:27;;;;;;;5.72;2.17;;;;;;;18.34;54.67;99649.22;6195794;28;20556;-72
2023/10/08 06:32:30;;;;;;;7.40;3.50;;;;;;;18.37;54.33;99659.50;6194542;28;20057;-72
2023/10/08 06:35:32;;;;;;;14.98;5.90;;;;;;;18.59;55.13;99665.25;6195637;28;20054;-71
2023/10/08 06:38:34;;;;;;;14.80;4.10;;;;;;;18.67;54.12;99652.09;6195649;28;20054;-72
2023/10/08 06:41:35;;;;;;;10.02;3.78;;;;;;;18.71;54.97;99648.97;6194498;28;20050;-72
2023/10/08 06:44:37;;;;;;;17.17;4.88;;;;;;;18.77;55.03;99657.28;6195407;28;20513;-72
2023/10/08 06:47:38;;;;;;;;;;;;;;;18.73;54.14;99648.84;6195028;28;20140;-72
2023/10/08 06:50:41;;;;;;;4.43;2.25;;;;;;;18.78;54.89;99629.84;6194459;28;20051;-72
2023/10/08 06:53:45;;;;;;;9.20;3.40;;;;;;;18.76;53.90;99637.13;6194080;28;20058;-73
2023/10/08 06:56:46;;;;;;;11.07;3.25;;;;;;;18.73;54.33;99633.81;6194351;28;20058;-73
2023/10/08 06:59:50;;;;;;;6.63;2.70;;;;;;;18.58;55.04;99640.66;6194182;28;20101;-73
2023/10/08 07:02:51;;;;;;;8.80;4.32;;;;;;;18.84;56.00;99639.84;6195357;28;20091;-73
2023/10/08 07:05:58;;;;;;;9.82;2.70;;;;;;;18.92;54.21;99638.09;6194081;28;20042;-73
2023/10/08 07:09:00;;;;;;;6.68;2.20;;;;;;;19.20;53.01;99645.81;6195375;28;20055;-72
2023/10/08 07:12:05;;;;;;;12.60;2.75;;;;;;;19.47;53.06;99642.09;6193836;28;20517;-73
2023/10/08 07:15:12;;;;;;;9.73;2.00;;;;;;;19.61;51.94;99650.41;6193825;28;20505;-72
2023/10/08 07:18:14;;;;;;;7.32;2.55;;;;;;;19.64;52.53;99636.84;6195077;28;20125;-72
2023/10/08 07:21:15;;;;;;;9.63;2.60;;;;;;;19.70;52.34;99628.25;6195136;28;20050;-72
2023/10/08 07:24:21;;;;;;;10.80;2.00;;;;;;;19.51;52.55;99632.00;6194740;28;20115;-72
2023/10/08 07:27:24;;;;;;;7.97;2.63;;;;;;;19.35;52.34;99634.63;6195016;28;20054;-72
2023/10/08 07:30:32;;;;;;;3.80;2.10;;;;;;;19.31;53.50;99634.94;6194630;28;20199;-72
2023/10/08 07:33:36;;;;;;;4.53;1.95;;;;;;;19.52;52.67;99633.69;6295814;28;20076;-72
2023/10/08 07:36:38;;;;;;;4.43;1.80;;;;;;;19.89;52.07;99635.94;6194501;28;20076;-72
2023/10/08 07:39:46;;;;;;;7.38;2.08;;;;;;;19.96;52.40;99641.38;6194641;28;20455;-72
2023/10/08 07:42:51;;;;;;;6.25;2.10;;;;;;;20.25;51.64;99650.66;6194667;28;20046;-72
2023/10/08 07:45:54;;;;;;;5.97;2.13;;;;;;;20.47;52.51;99655.28;6193204;28;20486;-72
2023/10/08 07:48:57;;;;;;;7.10;1.77;;;;;;;20.51;51.27;99667.22;6193357;28;20057;-72
2023/10/08 07:52:01;;;;;;;5.65;2.13;;;;;;;20.87;50.83;99666.84;6193154;28;20548;-72
2023/10/08 07:55:04;;;;;;;4.57;1.90;;;;;;;20.74;50.96;99679.81;6193163;28;20051;-72
2023/10/08 07:58:09;;;;;;;4.47;1.70;;;;;;;21.04;51.59;99670.25;6192919;28;20510;-72
2023/10/08 08:01:13;;;;;;;6.35;1.92;;;;;;;21.18;52.48;99671.38;6194698;28;20054;-72
2023/10/08 08:04:23;;;;;;;5.50;2.08;;;;;;;21.06;51.14;99667.44;6193029;28;20054;-72
2023/10/08 08:07:24;;;;;;;5.65;1.67;;;;;;;21.17;50.85;99680.38;6194195;28;20058;-72
2023/10/08 08:10:25;;;;;;;6.13;1.93;;;;;;;21.14;50.88;99680.69;6193997;28;20058;-72
2023/10/08 08:13:27;;;;;;;7.47;2.40;;;;;;;21.32;50.32;99673.31;6192931;28;20720;-72
2023/10/08 08:16:29;;;;;;;7.47;2.25;;;;;;;21.29;50.31;99668.38;6195685;28;20050;-72
2023/10/08 08:19:32;;;;;;;8.10;2.50;;;;;;;21.57;50.35;99681.19;6197358;28;20050;-72
2023/10/08 08:22:40;;;;;;;9.95;2.00;;;;;;;21.50;50.35;99689.03;6198327;28;20085;-72
2023/10/08 08:29:02;;;;;;;4.13;2.05;;;;;;;21.62;51.13;99712.53;6198108;28;20054;-72
2023/10/08 08:32:04;;;;;;;6.57;2.13;;;;;;;21.32;51.13;99707.81;6198076;28;20050;-73
2023/10/08 08:35:07;;;;;;;8.07;2.28;;;;;;;21.25;51.18;99717.47;6198273;28;20051;-73
2023/10/08 08:38:12;;;;;;;7.18;1.92;;;;;;;21.10;52.22;99722.63;6196907;28;20057;-72
2023/10/08 08:41:17;;;;;;;4.30;1.80;;;;;;;21.12;52.06;99725.13;6197893;28;20085;-72
2023/10/08 08:44:18;;;;;;;7.75;1.95;;;;;;;20.87;52.40;99711.91;6196656;28;20050;-72
2023/10/08 08:47:24;;;;;;;11.40;2.25;;;;;;;21.02;51.95;99713.88;6197648;28;20421;-73
2023/10/08 08:50:26;;;;;;;14.80;1.67;;;;;;;20.09;53.63;99763.53;6299100;28;20545;-72
2023/10/08 08:53:28;;;;;;;;;;;;;;;18.69;56.66;99791.00;6196829;28;20489;-72
2023/10/08 08:56:38;;;;;;;12.68;1.05;;;;;;;17.93;58.10;99815.16;6196392;28;19922;-72
2023/10/08 08:59:52;;;;;;;6.03;0.55;;;;;;;18.04;57.65;99822.06;6196629;28;20050;-72
2023/10/08 09:02:53;;;;;;;19.52;0.75;;;;;;;17.68;58.91;99845.66;6196417;28;20521;-72
2023/10/08 09:05:54;;;;;;;5.28;0.57;;;;;;;17.11;58.46;99848.28;6197255;28;20050;-72
2023/10/08 09:09:13;;;;;;;3.50;0.45;;;;;;;17.17;58.53;99853.00;6196206;28;20490;-72
2023/10/08 09:12:20;;;;;;;10.13;0.50;;;;;;;16.81;58.66;99881.72;6197510;28;20050;-72
2023/10/08 09:15:22;;;;;;;8.65;0.88;;;;;;;16.25;59.73;99884.94;6196057;28;20391;-72
2023/10/08 09:18:27;;;;;;;3.83;0.63;;;;;;;16.30;59.66;99890.63;6197251;28;20508;-72
2023/10/08 09:21:28;;;;;;;9.48;0.32;;;;;;;16.40;61.11;99907.28;6197125;28;20058;-72
2023/10/08 09:24:36;;;;;;;2.38;0.32;;;;;;;15.80;61.63;99904.56;6195999;28;20082;-72
2023/10/08 09:27:46;;;;;;;1.20;0.22;;;;;;;16.14;61.19;99911.34;6196220;28;20137;-72
2023/10/08 09:30:48;;;;;;;1.98;0.15;;;;;;;16.13;61.27;99920.22;6197189;28;20085;-71
2023/10/08 09:33:56;;;;;;;2.53;0.10;;;;;;;15.87;61.12;99937.25;6195791;28;20043;-72
2023/10/08 09:37:02;;;;;;;3.00;0.63;;;;;;;16.10;62.03;99916.91;6197081;28;20053;-72
2023/10/08 09:40:09;;;;;;;5.35;0.35;;;;;;;15.83;58.89;99929.75;6196802;28;20046;-72
2023/10/08 09:43:11;;;;;;;4.20;0.30;;;;;;;15.81;58.58;99944.84;6195533;28;20097;-72
2023/10/08 09:46:16;;;;;;;;;;;;;;;15.71;59.68;99955.31;6195738;28;20042;-72
2023/10/08 09:49:24;;;;;;;0.10;0.10;;;;;;;15.71;59.53;99961.38;6195619;28;19929;-72
2023/10/08 09:52:44;;;;;;;6.43;0.35;;;;;;;15.48;60.78;99978.22;6195208;28;20070;-72
2023/10/08 09:55:54;;;;;;;2.90;0.25;;;;;;;15.31;61.36;99983.09;6196633;28;20046;-71
2023/10/08 09:58:55;;;;;;;2.58;0.20;;;;;;;15.11;61.73;99986.50;6196414;28;20055;-71
2023/10/08 10:01:59;;;;;;;4.97;0.77;;;;;;;15.11;61.75;100002.28;6196574;28;20050;-72
2023/10/08 10:05:03;;;;;;;1.35;0.57;;;;;;;14.78;61.51;100018.94;6196262;28;20722;-72
2023/10/08 10:08:09;;;;;;;0.20;0.20;;;;;;;14.77;60.23;100020.75;6196171;28;20498;-71
2023/10/08 10:11:11;;;;;;;0.28;0.20;;;;;;;14.58;61.20;100041.50;6196287;28;20137;-71
2023/10/08 10:14:13;;;;;;;5.93;0.40;;;;;;;14.63;61.62;100042.81;6195340;28;20125;-72
2023/10/08 10:17:22;;;;;;;4.97;0.45;;;;;;;14.36;62.19;100037.06;6196030;28;20064;-72
2023/10/08 10:20:23;;;;;;;4.38;0.32;;;;;;;14.56;64.50;100048.66;6196105;28;20086;-72
2023/10/08 10:23:44;;;;;;;0.15;0.15;;;;;;;14.34;66.97;100034.56;6196022;28;20518;-71
2023/10/08 10:26:49;;;;;;;4.95;0.43;;;;;;;14.25;68.00;100033.47;6196086;28;20057;-72
2023/10/08 10:29:50;;;;;;;1.35;0.30;;;;;;;14.42;68.21;100028.72;6195825;28;20051;-72
2023/10/08 10:32:54;;;;;;;1.40;0.30;;;;;;;14.15;67.50;100029.06;6194892;28;20058;-71
2023/10/08 10:36:00;;;;;;;0.10;0.10;;;;;;;14.02;67.34;100037.00;6194586;28;20409;-72
2023/10/08 10:39:15;;;;;;;0.13;0.13;;;;;;;14.09;68.05;100052.19;6195598;28;20421;-71
2023/10/08 10:42:22;;;;;;;0.20;0.20;;;;;;;13.89;67.44;100068.56;6195596;28;20054;-72
2023/10/08 10:45:39;;;;;;;0.60;0.55;;;;;;;13.78;67.94;100079.88;6194569;28;20092;-72
2023/10/08 10:48:43;;;;;;;1.45;0.45;;;;;;;13.78;71.58;100077.25;6195352;28;20409;-72
2023/10/08 10:51:47;;;;;;;2.78;0.28;;;;;;;13.51;75.88;100061.78;6194568;28;20093;-73
2023/10/08 10:54:58;;;;;;;0.20;0.20;;;;;;;13.57;79.04;100074.44;6194331;28;20055;-73
2023/10/08 10:58:04;;;;;;;0.75;0.40;;;;;;;13.72;79.15;100082.13;6195325;28;20050;-73
2023/10/08 11:01:21;;;;;;;2.22;0.55;;;;;;;13.74;79.00;100072.34;6194109;28;20119;-72
2023/10/08 11:04:28;;;;;;;0.47;0.30;;;;;;;13.63;77.79;100068.72;6195364;28;20103;-73
2023/10/08 11:07:29;;;;;;;0.20;0.20;;;;;;;13.96;79.46;100064.56;6195123;28;20057;-72
2023/10/08 11:10:46;;;;;;;1.38;0.43;;;;;;;13.99;79.14;100069.56;6195404;28;20058;-73
2023/10/08 11:13:54;;;;;;;0.17;0.17;;;;;;;13.80;78.19;100067.47;6195106;28;20066;-73
2023/10/08 11:16:55;;;;;;;0.30;0.25;;;;;;;13.71;77.85;100076.00;6195394;28;20570;-72
2023/10/08 11:19:56;;;;;;;2.97;0.90;;;;;;;13.56;78.35;100070.13;6195116;28;20054;-73
2023/10/08 11:23:17;;;;;;;1.55;0.47;;;;;;;13.40;77.19;100069.56;6194022;28;20050;-73
2023/10/08 11:26:19;;;;;;;2.17;1.10;;;;;;;13.80;77.92;100058.78;6194737;28;20046;-73
2023/10/08 11:29:25;;;;;;;0.80;0.57;;;;;;;13.79;76.60;100072.84;6193580;28;20411;-72
2023/10/08 11:32:32;;;;;;;1.42;0.52;;;;;;;13.84;75.56;100074.16;6194639;28;20050;-72
2023/10/08 11:35:33;;;;;;;0.52;0.40;;;;;;;13.66;76.03;100075.53;6193744;28;20089;-72
2023/10/08 11:38:47;;;;;;;3.97;1.65;;;;;;;13.57;75.24;100089.28;6194659;28;20074;-72
2023/10/08 11:42:06;;;;;;;1.95;1.25;;;;;;;13.76;75.61;100094.88;6194855;28;20137;-72
2023/10/08 11:45:23;;;;;;;0.70;0.47;;;;;;;13.77;76.38;100080.81;6295327;28;20078;-72
2023/10/08 11:48:28;;;;;;;0.95;0.57;;;;;;;14.07;74.23;100088.19;6193349;28;20104;-72
2023/10/08 11:51:36;;;;;;;0.95;0.50;;;;;;;13.89;73.36;100089.56;6193785;28;20054;-72
2023/10/08 11:54:39;;;;;;;0.40;0.30;;;;;;;14.09;73.61;100095.94;6193212;28;20494;-72
2023/10/08 11:57:45;;;;;;;0.40;0.30;;;;;;;14.11;73.11;100104.53;6194233;28;20062;-72
2023/10/08 12:00:52;;;;;;;1.45;0.45;;;;;;;14.05;73.08;100113.69;6194497;28;20065;-72
2023/10/08 12:03:59;;;;;;;1.10;0.57;;;;;;;14.05;73.63;100113.69;6194149;28;20124;-72
2023/10/08 12:07:07;;;;;;;2.17;0.68;;;;;;;14.23;72.86;100108.03;6194361;28;20058;-73
2023/10/08 12:10:11;;;;;;;1.17;0.50;;;;;;;14.09;73.16;100115.16;6192926;28;20084;-73
2023/10/08 12:13:12;;;;;;;1.42;0.40;;;;;;;14.31;71.71;100114.38;6194345;28;20054;-72
2023/10/08 12:16:22;;;;;;;1.20;0.52;;;;;;;14.44;71.22;100123.94;6192959;28;20051;-72
2023/10/08 12:19:26;;;;;;;1.00;0.55;;;;;;;14.41;72.09;100122.41;6295241;28;20055;-73
2023/10/08 12:22:31;;;;;;;1.17;0.40;;;;;;;14.54;72.61;100118.81;6192722;28;20410;-72
2023/10/08 12:25:33;;;;;;;0.65;0.40;;;;;;;14.50;71.20;100118.22;6192634;28;20054;-72
2023/10/08 12:28:34;;;;;;;1.30;0.32;;;;;;;14.36;72.28;100126.31;6192693;28;20571;-72
2023/10/08 12:31:37;;;;;;;0.85;0.45;;;;;;;14.41;72.68;100117.16;6194139;28;20054;-72
2023/10/08 12:34:38;;;;;;;1.20;0.60;;;;;;;14.56;72.23;100125.66;6193885;28;20054;-73
2023/10/08 12:37:44;;;;;;;1.73;0.50;;;;;;;14.56;71.87;100125.66;6193918;28;20146;-73
2023/10/08 12:40:47;;;;;;;0.30;0.30;;;;;;;14.63;71.68;100132.09;6193735;28;20133;-72
2023/10/08 12:43:52;;;;;;;0.60;0.45;;;;;;;14.73;71.03;100139.28;6193878;28;20111;-72
2023/10/08 12:46:53;;;;;;;1.17;0.50;;;;;;;14.80;71.07;100135.22;6193748;28;20104;-73
2023/10/08 12:49:57;;;;;;;1.45;0.50;;;;;;;14.90;70.19;100129.13;6193517;28;20046;-73
2023/10/08 12:53:03;;;;;;;0.60;0.40;;;;;;;15.19;70.17;100140.94;6193838;28;20092;-72
2023/10/08 12:56:06;;;;;;;3.25;0.55;;;;;;;14.99;68.98;100132.84;6192251;28;20069;-72
2023/10/08 12:59:07;;;;;;;;;;;;;;;15.15;69.06;100140.34;6192701;28;20433;-73
2023/10/08 13:02:10;;;;;;;0.98;0.47;;;;;;;15.19;68.66;100133.06;6192116;28;19990;-73
2023/10/08 13:05:15;;;;;;;1.00;0.68;;;;;;;15.31;68.69;100142.63;6197537;28;20129;-72
2023/10/08 13:08:17;;;;;;;5.88;0.70;;;;;;;15.20;68.14;100140.84;6197300;28;20130;-72
2023/10/08 13:11:22;;;;;;;0.43;0.43;;;;;;;15.38;65.41;100149.06;6197565;28;20087;-73
2023/10/08 13:14:23;;;;;;;1.08;0.68;;;;;;;15.62;64.98;100148.88;6197567;28;20092;-72
2023/10/08 13:17:29;;;;;;;0.70;0.60;;;;;;;15.62;61.92;100151.50;6197499;28;20058;-73
2023/10/08 13:20:34;;;;;;;2.33;0.95;;;;;;;15.75;59.24;100159.28;6197675;28;20491;-72
2023/10/08 13:23:36;;;;;;;1.10;0.68;;;;;;;16.03;57.92;100167.56;6196190;28;20145;-72
2023/10/08 13:26:38;;;;;;;0.68;0.60;;;;;;;16.41;56.54;100160.91;6195877;28;20050;-73
2023/10/08 13:29:39;;;;;;;1.00;0.60;;;;;;;16.66;53.77;100159.69;6197259;28;20058;-73
2023/10/08 13:32:42;;;;;;;1.27;0.50;;;;;;;16.89;54.67;100171.75;6197248;28;20085;-73
2023/10/08 13:35:43;;;;;;;2.08;0.80;;;;;;;16.82;54.75;100169.78;6195686;28;20325;-72
2023/10/08 13:38:46;;;;;;;0.70;0.43;;;;;;;16.85;54.14;100174.78;6196873;28;20115;-73
2023/10/08 13:41:51;;;;;;;0.88;0.50;;;;;;;16.44;53.42;100177.28;6196865;28;20051;-73
2023/10/08 13:44:59;;;;;;;1.65;0.70;;;;;;;16.56;54.66;100178.06;6196042;28;20038;-72
2023/10/08 13:48:01;;;;;;;1.08;0.73;;;;;;;16.29;52.21;100184.66;6195535;28;20054;-73
2023/10/08 13:51:03;;;;;;;1.60;0.77;;;;;;;16.63;54.90;100189.75;6196827;28;20051;-72
2023/10/08 13:54:09;;;;;;;1.42;0.68;;;;;;;16.53;52.24;100188.84;6195221;28;20413;-72
2023/10/08 13:57:14;;;;;;;1.27;0.77;;;;;;;16.62;51.10;100189.88;6195546;28;20054;-72
2023/10/08 14:00:25;;;;;;;2.28;0.88;;;;;;;16.79;52.53;100191.91;6196569;28;20410;-72
2023/10/08 14:03:33;;;;;;;1.50;0.75;;;;;;;16.55;52.29;100204.53;6196770;28;20050;-72
2023/10/08 14:06:36;;;;;;;1.42;0.60;;;;;;;16.44;52.16;100202.78;6195219;28;20103;-72
2023/10/08 14:09:41;;;;;;;2.38;0.50;;;;;;;16.42;52.21;100195.00;6195282;28;20057;-72
2023/10/08 14:12:43;;;;;;;0.98;0.65;;;;;;;16.48;51.39;100210.31;6196323;28;20183;-73
2023/10/08 14:15:48;;;;;;;1.87;1.00;;;;;;;16.52;52.23;100213.53;6194952;28;20082;-73
2023/10/08 14:18:59;;;;;;;5.20;0.68;;;;;;;16.62;52.35;100213.59;6196193;28;20100;-72
2023/10/08 14:22:03;;;;;;;1.38;0.50;;;;;;;16.59;52.84;100219.09;6194946;28;20054;-72
2023/10/08 14:25:11;;;;;;;0.85;0.65;;;;;;;16.59;52.39;100219.09;6196031;28;20047;-73
2023/10/08 14:28:21;;;;;;;1.55;0.70;;;;;;;16.52;51.74;100222.25;6194788;28;20533;-73
2023/10/08 14:31:24;;;;;;;1.08;0.52;;;;;;;16.54;52.86;100221.31;6195846;28;20054;-73
2023/10/08 14:44:24;;;;;;;2.75;0.82;;;;;;;15.93;51.90;100246.41;6195526;28;20119;-72
2023/10/08 14:47:26;;;;;;;2.28;0.70;;;;;;;15.88;51.85;100251.22;6195707;28;20057;-73
2023/10/08 14:50:31;;;;;;;1.55;0.68;;;;;;;15.91;51.73;100251.78;6195434;28;20082;-73
2023/10/08 14:53:34;;;;;;;0.73;0.52;;;;;;;15.81;51.68;100244.75;6195530;28;20054;-73
2023/10/08 14:56:36;;;;;;;1.90;0.77;;;;;;;15.58;50.98;100255.28;6195431;28;20051;-72
2023/10/08 14:59:38;;;;;;;1.75;0.60;;;;;;;15.56;50.27;100262.44;6195262;28;20077;-72
2023/10/08 15:02:41;;;;;;;1.45;0.63;;;;;;;15.53;51.29;100270.59;6194361;28;20478;-72
2023/10/08 15:05:45;;;;;;;0.50;0.45;;;;;;;15.46;51.59;100278.13;6195209;28;20046;-72
2023/10/08 15:08:46;;;;;;;0.77;0.55;;;;;;;15.36;50.87;100285.06;6194036;28;20104;-72
2023/10/08 15:11:48;;;;;;;0.82;0.45;;;;;;;15.31;51.41;100287.19;6194235;28;20050;-72
2023/10/08 15:14:50;;;;;;;2.92;0.90;;;;;;;15.21;50.91;100296.75;6195235;28;20054;-72
2023/10/08 15:17:51;;;;;;;5.90;0.82;;;;;;;15.18;50.32;100295.19;6193926;28;20050;-72
2023/10/08 15:20:53;;;;;;;2.25;0.88;;;;;;;15.24;51.59;100302.59;6193781;28;20057;-73